Time;durP1;ratioP1;P1;durP2;ratioP2;P2;SDS_P1;SDS_P2;PMS_P1;PMS_P2;Temp;Humidity;BMP_temperature;BMP_pressure;BME280_temperature;BME280_humidity;BME280_pressure;Samples;Min_cycle;Max_cycle;Signal;HPM_P1;HPM_P2
2022/02/11 00:00:50;;;;;;;;;;;4.10;99.90;;;;;;4945052;28;19945;-73
2022/02/11 00:08:11;;;;;;;;;;;4.10;99.90;;;;;;4945892;28;19911;-73
2022/02/11 00:10:38;;;;;;;;;;;4.10;99.90;;;;;;4946060;29;20266;-73
2022/02/11 00:13:04;;;;;;;;;;;4.10;99.90;;;;;;4948514;29;19918;-72
2022/02/11 00:17:55;;;;;;;;;;;4.10;99.90;;;;;;4945986;29;19965;-73
2022/02/11 00:20:22;;;;;;;;;;;4.10;99.90;;;;;;4943782;28;19914;-73
2022/02/11 00:22:48;;;;;;;;;;;4.10;99.90;;;;;;4946565;29;19910;-73
2022/02/11 00:25:14;;;;;;;;;;;4.10;99.90;;;;;;4947817;28;21178;-73
2022/02/11 00:28:12;;;;;;;;;;;4.00;99.90;;;;;;4946173;28;19917;-73
2022/02/11 00:30:46;;;;;;;;;;;4.00;99.90;;;;;;4949359;28;19911;-73
2022/02/11 00:33:24;;;;;;;;;;;4.00;99.90;;;;;;4946886;28;20257;-73
2022/02/11 00:39:02;;;;;;;;;;;4.00;99.90;;;;;;4950910;28;19926;-73
2022/02/11 01:06:09;;;;;;;;;;;3.80;99.90;;;;;;4971359;28;20372;-74
2022/02/11 01:08:35;;;;;;;;;;;3.80;99.90;;;;;;4968059;28;20002;-74
2022/02/11 01:11:02;;;;;;;;;;;3.90;99.90;;;;;;4942315;28;19985;-74
2022/02/11 01:13:27;;;;;;;;;;;3.80;99.90;;;;;;4977346;28;19949;-74
2022/02/11 01:16:02;;;;;;;;;;;3.80;99.90;;;;;;4974775;28;19906;-73
2022/02/11 01:18:27;;;;;;;;;;;3.70;99.90;;;;;;4989571;28;19956;-73
2022/02/11 01:21:00;;;;;;;;;;;3.70;99.90;;;;;;4977443;28;19949;-74
2022/02/11 01:23:52;;;;;;;;;;;3.70;99.90;;;;;;4977921;28;19918;-74
2022/02/11 01:26:49;;;;;;;;;;;3.70;99.90;;;;;;4975411;28;19956;-73
2022/02/11 01:29:48;;;;;;;;;;;3.70;99.90;;;;;;4955780;28;19961;-73
2022/02/11 01:37:30;;;;;;;;;;;3.60;99.90;;;;;;4973834;28;19988;-73
2022/02/11 01:48:42;;;;;;;;;;;3.60;99.90;;;;;;4977235;28;20456;-73
2022/02/11 01:54:07;;;;;;;;;;;3.60;99.90;;;;;;4976086;28;19918;-75
2022/02/11 02:24:57;;;;;;;;;;;3.30;99.90;;;;;;4981703;28;19909;-74
2022/02/11 02:50:11;;;;;;;;;;;3.20;99.90;;;;;;4981699;28;19995;-73
2022/02/11 02:57:20;;;;;;;;;;;3.10;99.90;;;;;;4978939;28;20000;-73
2022/02/11 03:34:51;;;;;;;;;;;2.90;99.90;;;;;;4979937;28;19917;-73
2022/02/11 03:49:00;;;;;;;;;;;2.80;99.90;;;;;;4891328;29;19911;-73
2022/02/11 03:51:56;;;;;;;;;;;2.80;99.90;;;;;;4948052;28;19989;-74
2022/02/11 04:27:45;;;;;;;;;;;3.00;99.90;;;;;;4984365;28;19910;-74
2022/02/11 04:56:38;;;;;;;;;;;3.00;99.90;;;;;;4979789;28;19961;-74
2022/02/11 05:01:47;;;;;;;;;;;3.10;99.90;;;;;;4982208;28;19972;-73
2022/02/11 05:04:13;;;;;;;;;;;3.10;99.90;;;;;;4978282;28;20364;-74
2022/02/11 05:06:38;;;;;;;;;;;3.00;99.90;;;;;;4956939;28;19924;-74
2022/02/11 05:09:04;;;;;;;;;;;3.00;99.90;;;;;;4978240;28;19914;-74
2022/02/11 05:11:30;;;;;;;;;;;3.00;99.90;;;;;;4960419;28;20244;-74
2022/02/11 05:13:55;;;;;;;;;;;3.10;99.90;;;;;;4980256;28;20517;-74
2022/02/11 05:16:21;;;;;;;;;;;3.10;99.90;;;;;;4957278;28;19910;-74
2022/02/11 05:18:46;;;;;;;;;;;3.10;99.90;;;;;;4969554;28;20394;-74
2022/02/11 05:21:12;;;;;;;;;;;3.10;99.90;;;;;;4948085;28;19910;-74
2022/02/11 05:23:37;;;;;;;;;;;3.10;99.90;;;;;;4974232;28;19910;-75
2022/02/11 05:26:03;;;;;;;;;;;3.00;99.90;;;;;;4957588;28;19914;-73
2022/02/11 05:28:29;;;;;;;;;;;3.00;99.90;;;;;;4981826;28;19922;-74
2022/02/11 05:30:54;;;;;;;;;;;3.00;99.90;;;;;;4978673;28;19949;-74
2022/02/11 05:33:21;;;;;;;;;;;3.10;99.90;;;;;;4961008;28;19925;-73
2022/02/11 05:35:46;;;;;;;;;;;3.10;99.90;;;;;;4979541;28;19920;-74
2022/02/11 05:38:12;;;;;;;;;;;3.10;99.90;;;;;;4942493;28;20000;-74
2022/02/11 05:40:38;;;;;;;;;;;3.10;99.90;;;;;;4969618;28;19932;-74
2022/02/11 05:43:03;;;;;;;;;;;3.10;99.90;;;;;;4961575;28;19960;-74
2022/02/11 05:45:29;;;;;;;;;;;3.10;99.90;;;;;;4966110;28;19910;-73
2022/02/11 05:47:54;;;;;;;;;;;3.10;99.90;;;;;;4974700;28;19910;-73
2022/02/11 05:50:20;;;;;;;;;;;3.10;99.90;;;;;;4983472;28;19914;-74
2022/02/11 05:52:45;;;;;;;;;;;3.20;99.90;;;;;;4978742;28;20043;-74
2022/02/11 05:55:11;;;;;;;;;;;3.30;99.90;;;;;;4973666;28;19953;-74
2022/02/11 05:57:37;;;;;;;;;;;3.20;99.90;;;;;;4970104;28;19957;-72
2022/02/11 06:00:03;;;;;;;;;;;3.30;99.90;;;;;;4978903;28;19973;-74
2022/02/11 06:02:29;;;;;;;;;;;3.20;99.90;;;;;;4955818;28;19917;-73
2022/02/11 06:04:54;;;;;;;;;;;3.30;99.90;;;;;;4959672;28;20102;-74
2022/02/11 06:07:20;;;;;;;;;;;3.30;99.90;;;;;;4943632;28;19925;-75
2022/02/11 06:09:46;;;;;;;;;;;3.30;99.90;;;;;;4958504;28;20008;-73
2022/02/11 06:12:12;;;;;;;;;;;3.30;99.90;;;;;;4956993;28;19917;-73
2022/02/11 06:14:38;;;;;;;;;;;3.30;99.90;;;;;;4959582;28;20012;-74
2022/02/11 06:17:04;;;;;;;;;;;3.30;99.90;;;;;;4970542;28;20001;-75
2022/02/11 06:19:30;;;;;;;;;;;3.30;99.90;;;;;;4965801;28;19965;-75
2022/02/11 06:21:55;;;;;;;;;;;3.30;99.90;;;;;;4973937;28;20311;-75
2022/02/11 06:24:21;;;;;;;;;;;3.50;99.90;;;;;;4974956;28;19909;-76
2022/02/11 06:26:46;;;;;;;;;;;3.50;99.90;;;;;;4962553;28;19914;-76
2022/02/11 06:29:13;;;;;;;;;;;3.50;99.90;;;;;;4964943;28;19910;-74
2022/02/11 06:31:39;;;;;;;;;;;3.50;99.90;;;;;;4963948;28;19953;-75
2022/02/11 06:34:06;;;;;;;;;;;3.50;99.90;;;;;;4956942;28;20019;-75
2022/02/11 06:36:32;;;;;;;;;;;3.60;99.90;;;;;;4958821;28;19910;-75
2022/02/11 06:38:58;;;;;;;;;;;3.60;99.90;;;;;;4968005;28;19934;-77
2022/02/11 06:41:23;;;;;;;;;;;3.60;99.90;;;;;;4935861;28;19965;-77
2022/02/11 06:43:49;;;;;;;;;;;3.60;99.90;;;;;;4962951;28;19914;-77
2022/02/11 06:46:15;;;;;;;;;;;3.60;99.90;;;;;;4962136;28;20432;-77
2022/02/11 06:48:41;;;;;;;;;;;3.50;99.90;;;;;;4962703;28;19917;-78
2022/02/11 06:51:07;;;;;;;;;;;3.50;99.90;;;;;;4966103;28;19932;-77
2022/02/11 06:53:33;;;;;;;;;;;3.60;99.90;;;;;;4958102;28;20423;-78
2022/02/11 06:55:58;;;;;;;;;;;3.60;99.90;;;;;;4981335;28;19910;-77
2022/02/11 06:58:24;;;;;;;;;;;3.60;99.90;;;;;;4983686;28;19910;-78
2022/02/11 07:00:50;;;;;;;;;;;3.60;99.90;;;;;;4966693;28;19910;-78
2022/02/11 07:03:16;;;;;;;;;;;3.60;99.90;;;;;;4959008;28;19917;-77
2022/02/11 07:05:48;;;;;;;;;;;3.60;99.90;;;;;;4961533;28;19972;-75
2022/02/11 07:08:13;;;;;;;;;;;3.60;99.90;;;;;;4959493;28;20376;-76
2022/02/11 07:10:39;;;;;;;;;;;3.60;99.90;;;;;;4956288;28;19914;-77
2022/02/11 07:13:05;;;;;;;;;;;3.50;99.90;;;;;;4978773;28;20376;-77
2022/02/11 07:15:34;;;;;;;;;;;3.60;99.90;;;;;;4982171;28;19925;-77
2022/02/11 07:18:00;;;;;;;;;;;3.60;99.90;;;;;;4982036;28;20599;-77
2022/02/11 07:20:26;;;;;;;;;;;3.60;99.90;;;;;;4964993;28;19909;-76
2022/02/11 07:22:52;;;;;;;;;;;3.70;99.90;;;;;;4961038;28;19910;-76
2022/02/11 07:25:17;;;;;;;;;;;3.70;99.90;;;;;;4964166;28;19965;-77
2022/02/11 07:27:43;;;;;;;;;;;3.70;99.90;;;;;;4982848;28;20323;-77
2022/02/11 07:30:08;;;;;;;;;;;3.80;99.90;;;;;;4977873;28;19913;-77
2022/02/11 07:32:34;;;;;;;;;;;3.70;99.90;;;;;;4980438;28;19917;-77
2022/02/11 07:35:02;;;;;;;;;;;3.80;99.90;;;;;;4983272;28;19963;-77
2022/02/11 07:37:29;;;;;;;;;;;3.80;99.90;;;;;;4966701;28;19966;-78
2022/02/11 07:39:57;;;;;;;;;;;3.80;99.90;;;;;;4981270;28;20359;-78
2022/02/11 07:42:23;;;;;;;;;;;3.80;99.90;;;;;;4973939;28;19914;-78
2022/02/11 07:44:48;;;;;;;;;;;3.90;99.90;;;;;;4947647;28;20283;-77
2022/02/11 07:47:15;;;;;;;;;;;3.90;99.90;;;;;;4975957;28;19928;-77
2022/02/11 07:49:41;;;;;;;;;;;3.90;99.90;;;;;;4976312;28;19914;-77
2022/02/11 07:52:06;;;;;;;;;;;4.00;99.90;;;;;;4958605;28;19913;-77
2022/02/11 07:54:32;;;;;;;;;;;4.00;99.90;;;;;;4960148;28;21747;-77
2022/02/11 07:57:00;;;;;;;;;;;4.10;99.90;;;;;;4959238;28;19933;-75
2022/02/11 07:59:25;;;;;;;;;;;4.10;99.90;;;;;;4984184;28;19917;-76
2022/02/11 08:01:51;;;;;;;;;;;4.20;99.90;;;;;;4967263;28;19918;-75
2022/02/11 08:04:17;;;;;;;;;;;4.20;99.90;;;;;;4974214;28;19944;-75
2022/02/11 08:06:42;;;;;;;;;;;4.20;99.90;;;;;;4974416;28;19913;-76
2022/02/11 08:09:08;;;;;;;;;;;4.20;99.90;;;;;;4956434;28;19910;-75
2022/02/11 08:11:33;;;;;;;;;;;4.20;99.90;;;;;;4956438;28;20373;-76
2022/02/11 08:14:00;;;;;;;;;;;4.20;99.90;;;;;;4973622;28;19914;-76
2022/02/11 08:16:25;;;;;;;;;;;4.20;99.90;;;;;;4959142;28;19913;-75
2022/02/11 08:18:51;;;;;;;;;;;4.20;99.90;;;;;;4984858;28;20005;-76
2022/02/11 08:21:17;;;;;;;;;;;4.20;99.90;;;;;;4962978;28;20005;-76
2022/02/11 08:23:43;;;;;;;;;;;4.20;99.90;;;;;;4974353;28;19996;-76
2022/02/11 08:26:09;;;;;;;;;;;4.20;99.90;;;;;;4977125;28;20448;-77
2022/02/11 08:28:36;;;;;;;;;;;4.10;99.90;;;;;;4981270;28;19917;-77
2022/02/11 08:31:01;;;;;;;;;;;4.20;99.90;;;;;;4974803;28;19918;-76
2022/02/11 08:33:27;;;;;;;;;;;4.10;99.90;;;;;;4974231;28;20385;-76
2022/02/11 08:35:53;;;;;;;;;;;4.20;99.90;;;;;;4945247;28;19910;-76
2022/02/11 08:38:20;;;;;;;;;;;4.30;99.90;;;;;;4955724;28;20379;-76
2022/02/11 08:40:46;;;;;;;;;;;4.20;99.90;;;;;;4974844;28;20380;-76
2022/02/11 08:43:11;;;;;;;;;;;4.30;99.90;;;;;;4973728;28;21084;-76
2022/02/11 08:45:40;;;;;;;;;;;4.30;99.90;;;;;;4976568;28;19964;-76
2022/02/11 08:48:10;;;;;;;;;;;4.30;99.90;;;;;;4957236;28;19909;-76
2022/02/11 08:50:36;;;;;;;;;;;4.30;99.90;;;;;;4944914;28;19914;-76
2022/02/11 08:53:03;;;;;;;;;;;4.40;99.90;;;;;;4973476;28;19993;-76
2022/02/11 08:55:28;;;;;;;;;;;4.40;99.90;;;;;;4959750;28;20000;-76
2022/02/11 08:57:59;;;;;;;;;;;4.40;99.90;;;;;;4975096;28;20492;-76
2022/02/11 09:00:27;;;;;;;;;;;4.50;99.90;;;;;;4954157;28;19910;-76
2022/02/11 09:02:54;;;;;;;;;;;4.40;99.90;;;;;;4976578;28;20732;-76
2022/02/11 09:05:21;;;;;;;;;;;4.50;99.90;;;;;;4978126;28;19910;-76
2022/02/11 09:07:53;;;;;;;;;;;4.40;99.90;;;;;;4961277;28;19910;-76
2022/02/11 09:10:20;;;;;;;;;;;4.40;99.90;;;;;;4963026;28;19910;-76
2022/02/11 09:12:45;;;;;;;;;;;4.40;99.90;;;;;;4957557;28;19914;-76
2022/02/11 09:15:11;;;;;;;;;;;4.40;99.90;;;;;;4962442;28;20364;-77
2022/02/11 09:17:37;;;;;;;;;;;4.40;99.90;;;;;;4974223;28;20368;-78
2022/02/11 09:20:02;;;;;;;;;;;4.40;99.90;;;;;;4978190;28;19910;-75
2022/02/11 09:22:30;;;;;;;;;;;4.40;99.90;;;;;;4974325;28;19917;-75
2022/02/11 09:24:56;;;;;;;;;;;4.50;99.90;;;;;;4952530;28;20525;-75
2022/02/11 09:27:21;;;;;;;;;;;4.50;99.90;;;;;;4953317;28;20364;-75
2022/02/11 09:29:47;;;;;;;;;;;4.50;99.90;;;;;;4960294;28;19921;-76
2022/02/11 09:32:13;;;;;;;;;;;4.50;99.90;;;;;;4952635;28;20017;-75
2022/02/11 09:34:39;;;;;;;;;;;4.60;99.90;;;;;;4968236;28;19906;-76
2022/02/11 09:37:04;;;;;;;;;;;4.60;99.90;;;;;;4973616;28;20000;-76
2022/02/11 09:39:30;;;;;;;;;;;4.60;99.90;;;;;;4973213;28;19928;-76
2022/02/11 09:41:55;;;;;;;;;;;4.60;99.90;;;;;;4944967;28;19910;-76
2022/02/11 09:44:24;;;;;;;;;;;4.50;99.90;;;;;;4944221;28;19917;-75
2022/02/11 09:46:50;;;;;;;;;;;4.50;99.90;;;;;;4977002;28;19906;-76
2022/02/11 09:49:17;;;;;;;;;;;4.50;99.90;;;;;;4978612;28;19961;-76
2022/02/11 09:51:44;;;;;;;;;;;4.50;99.90;;;;;;4963755;28;19996;-75
2022/02/11 09:54:14;;;;;;;;;;;4.50;99.90;;;;;;4960099;28;19913;-76
2022/02/11 09:56:41;;;;;;;;;;;4.50;99.90;;;;;;4974414;28;20040;-78
2022/02/11 09:59:06;;;;;;;;;;;4.50;99.90;;;;;;4943054;28;20388;-77
2022/02/11 10:01:32;;;;;;;;;;;4.50;99.90;;;;;;4968420;28;20005;-77
2022/02/11 10:04:07;;;;;;;;;;;4.50;99.90;;;;;;4997969;28;20041;-76
2022/02/11 10:06:33;;;;;;;;;;;4.60;99.90;;;;;;4980008;28;19949;-76
2022/02/11 10:08:59;;;;;;;;;;;4.60;99.90;;;;;;4959148;28;19910;-77
2022/02/11 10:11:25;;;;;;;;;;;4.60;99.90;;;;;;4957273;28;19910;-77
2022/02/11 10:13:53;;;;;;;;;;;4.70;99.90;;;;;;4978519;28;19921;-77
2022/02/11 10:16:22;;;;;;;;;;;4.70;99.90;;;;;;4978061;28;19945;-77
2022/02/11 10:18:48;;;;;;;;;;;4.80;99.90;;;;;;4977785;28;19909;-76
2022/02/11 10:21:20;;;;;;;;;;;4.80;99.90;;;;;;4975474;28;19920;-77
2022/02/11 10:23:46;;;;;;;;;;;4.70;99.90;;;;;;4979149;28;19963;-77
2022/02/11 10:26:16;;;;;;;;;;;4.70;99.90;;;;;;4978661;28;19909;-76
2022/02/11 10:28:45;;;;;;;;;;;4.70;99.90;;;;;;4983889;28;19910;-76
2022/02/11 10:31:11;;;;;;;;;;;4.60;99.90;;;;;;4977960;28;20045;-76
2022/02/11 10:33:55;;;;;;;;;;;4.60;99.90;;;;;;4962765;28;20008;-76
2022/02/11 10:36:24;;;;;;;;;;;4.70;99.90;;;;;;4973333;28;20426;-77
2022/02/11 10:39:05;;;;;;;;;;;4.80;99.90;;;;;;4960287;28;20260;-76
2022/02/11 10:41:32;;;;;;;;;;;4.90;99.90;;;;;;4978522;28;20024;-76
2022/02/11 10:44:18;;;;;;;;;;;4.90;99.90;;;;;;4948359;28;19981;-77
2022/02/11 10:46:45;;;;;;;;;;;5.00;99.90;;;;;;4979335;28;19916;-77
2022/02/11 10:49:11;;;;;;;;;;;5.10;99.90;;;;;;4980533;28;19997;-76
2022/02/11 10:51:38;;;;;;;;;;;5.00;99.90;;;;;;4964732;28;19920;-76
2022/02/11 10:54:20;;;;;;;;;;;5.10;99.90;;;;;;4950120;28;20372;-76
2022/02/11 10:56:49;;;;;;;;;;;5.20;99.90;;;;;;4978566;28;19937;-77
2022/02/11 10:59:22;;;;;;;;;;;5.30;99.90;;;;;;4960600;28;19921;-76
2022/02/11 11:01:48;;;;;;;;;;;5.30;99.90;;;;;;4981381;28;20157;-76
2022/02/11 11:04:13;;;;;;;;;;;5.20;99.90;;;;;;4978838;28;19972;-76
2022/02/11 11:06:39;;;;;;;;;;;5.30;99.90;;;;;;4960883;28;19933;-75
2022/02/11 11:09:05;;;;;;;;;;;5.40;99.90;;;;;;4987032;28;20311;-76
2022/02/11 11:11:32;;;;;;;;;;;5.40;99.90;;;;;;4960545;28;19917;-76
2022/02/11 11:13:58;;;;;;;;;;;5.50;99.90;;;;;;4981013;28;19921;-76
2022/02/11 11:16:26;;;;;;;;;;;5.50;99.90;;;;;;4964810;28;20013;-77
2022/02/11 11:18:51;;;;;;;;;;;5.40;99.90;;;;;;4980905;28;20439;-77
2022/02/11 11:21:17;;;;;;;;;;;5.40;99.90;;;;;;4978972;28;19922;-77
2022/02/11 11:24:03;;;;;;;;;;;5.40;99.90;;;;;;4977901;28;19957;-77
2022/02/11 11:26:42;;;;;;;;;;;5.50;99.90;;;;;;4981421;28;19925;-77
2022/02/11 11:29:09;;;;;;;;;;;5.60;99.90;;;;;;4978636;28;20484;-77
2022/02/11 11:31:35;;;;;;;;;;;5.70;99.90;;;;;;4981516;28;19916;-77
2022/02/11 11:34:16;;;;;;;;;;;5.70;99.90;;;;;;4981955;28;20384;-77
2022/02/11 11:36:44;;;;;;;;;;;5.80;99.90;;;;;;4965359;28;19910;-77
2022/02/11 11:39:09;;;;;;;;;;;5.70;99.90;;;;;;4980338;28;19909;-78
2022/02/11 11:41:37;;;;;;;;;;;5.70;99.90;;;;;;4965171;28;19918;-79
2022/02/11 11:44:19;;;;;;;;;;;5.70;99.90;;;;;;4964680;28;20004;-79
2022/02/11 11:46:48;;;;;;;;;;;5.70;99.90;;;;;;4961942;28;20271;-77
2022/02/11 11:49:20;;;;;;;;;;;5.70;99.90;;;;;;4964211;28;19913;-73
2022/02/11 11:51:45;;;;;;;;;;;5.70;99.90;;;;;;4965485;28;20296;-76
2022/02/11 11:54:17;;;;;;;;;;;5.60;99.90;;;;;;4950094;28;19918;-77
2022/02/11 11:56:43;;;;;;;;;;;5.70;99.90;;;;;;4980133;28;20376;-77
2022/02/11 11:59:15;;;;;;;;;;;5.80;99.90;;;;;;4966493;28;20008;-78
2022/02/11 12:01:56;;;;;;;;;;;5.80;99.90;;;;;;4958225;28;19965;-77
2022/02/11 12:04:23;;;;;;;;;;;5.90;99.90;;;;;;4964490;28;20013;-77
2022/02/11 12:07:03;;;;;;;;;;;6.00;99.90;;;;;;4963614;28;20385;-78
2022/02/11 12:09:29;;;;;;;;;;;5.90;99.90;;;;;;4976680;28;19968;-77
2022/02/11 12:12:04;;;;;;;;;;;5.90;99.90;;;;;;4977155;28;19945;-77
2022/02/11 12:14:31;;;;;;;;;;;5.90;99.90;;;;;;4980661;28;20374;-76
2022/02/11 12:16:57;;;;;;;;;;;5.90;99.90;;;;;;4960946;28;20387;-75
2022/02/11 12:19:22;;;;;;;;;;;6.10;99.90;;;;;;4980230;28;19914;-72
2022/02/11 12:21:48;;;;;;;;;;;6.10;99.90;;;;;;4981266;28;19922;-74
2022/02/11 12:30:01;;;;;;;;;;;6.20;99.90;;;;;;4970859;28;19910;-76
2022/02/11 12:32:33;;;;;;;;;;;6.20;99.90;;;;;;4955865;28;19914;-76
2022/02/11 12:35:01;;;;;;;;;;;6.20;99.90;;;;;;4976827;28;19916;-76
2022/02/11 12:37:28;;;;;;;;;;;6.20;99.90;;;;;;4981720;28;19910;-75
2022/02/11 12:40:02;;;;;;;;;;;6.20;99.90;;;;;;4955997;28;19906;-75
2022/02/11 12:42:30;;;;;;;;;;;6.20;99.90;;;;;;4953537;28;19910;-77
2022/02/11 12:44:56;;;;;;;;;;;6.20;99.90;;;;;;4976648;28;20261;-75
2022/02/11 12:47:21;;;;;;;;;;;6.20;99.90;;;;;;4960108;28;19915;-75
2022/02/11 12:49:51;;;;;;;;;;;6.10;99.90;;;;;;4969948;28;19911;-75
2022/02/11 12:52:21;;;;;;;;;;;6.00;99.90;;;;;;4955615;28;19945;-77
2022/02/11 12:54:56;;;;;;;;;;;5.90;99.90;;;;;;4970853;28;20011;-77
2022/02/11 12:57:22;;;;;;;;;;;5.90;99.90;;;;;;4971536;28;19918;-75
2022/02/11 12:59:48;;;;;;;;;;;5.90;99.90;;;;;;4952910;28;20049;-77
2022/02/11 13:02:27;;;;;;;;;;;5.90;99.90;;;;;;4972842;28;19925;-77
2022/02/11 13:05:13;;;;;;;;;;;5.80;99.90;;;;;;4960928;28;19953;-76
2022/02/11 13:07:40;;;;;;;;;;;5.50;99.90;;;;;;4958404;28;20012;-75
2022/02/11 13:10:07;;;;;;;;;;;5.40;99.90;;;;;;4952036;28;19973;-76
2022/02/11 13:12:36;;;;;;;;;;;5.40;99.90;;;;;;4976361;28;19917;-75
2022/02/11 13:15:03;;;;;;;;;;;5.30;99.90;;;;;;4957717;28;19963;-77
2022/02/11 13:17:30;;;;;;;;;;;5.20;99.90;;;;;;4954704;28;19940;-76
2022/02/11 13:20:08;;;;;;;;;;;5.10;99.90;;;;;;4957323;28;19964;-75
2022/02/11 13:22:34;;;;;;;;;;;5.00;99.90;;;;;;4956061;28;19914;-74
2022/02/11 13:25:03;;;;;;;;;;;5.00;99.90;;;;;;4942305;28;20253;-77
2022/02/11 13:27:41;;;;;;;;;;;5.00;99.90;;;;;;4958011;28;19920;-77
2022/02/11 13:30:07;;;;;;;;;;;5.00;99.90;;;;;;4970136;28;19914;-75
2022/02/11 13:32:32;;;;;;;;;;;5.00;99.90;;;;;;4957291;28;20288;-77
2022/02/11 13:35:02;;;;;;;;;;;5.10;99.90;;;;;;4956277;28;19914;-76
2022/02/11 13:37:38;;;;;;;;;;;5.10;99.90;;;;;;4956927;28;20000;-77
2022/02/11 13:40:14;;;;;;;;;;;5.20;99.90;;;;;;4978447;28;19960;-74
2022/02/11 13:42:39;;;;;;;;;;;5.20;99.90;;;;;;4955682;28;19914;-77
2022/02/11 13:45:07;;;;;;;;;;;5.20;99.90;;;;;;4952563;28;20399;-77
2022/02/11 13:47:33;;;;;;;;;;;5.20;99.90;;;;;;4949741;28;20367;-76
2022/02/11 13:50:05;;;;;;;;;;;5.20;99.90;;;;;;4962395;28;20451;-76
2022/02/11 13:55:17;;;;;;;;;;;5.30;99.90;;;;;;4962971;28;20509;-77
2022/02/11 13:57:43;;;;;;;;;;;5.20;99.90;;;;;;4966517;28;20252;-77
2022/02/11 14:00:31;;;;;;;;;;;5.10;99.90;;;;;;4968549;28;20254;-75
2022/02/11 14:02:56;;;;;;;;;;;5.10;99.90;;;;;;4953004;28;19919;-76
2022/02/11 14:05:22;;;;;;;;;;;5.00;99.90;;;;;;4934755;28;20005;-74
2022/02/11 14:07:51;;;;;;;;;;;5.00;99.90;;;;;;4971032;28;20500;-74
2022/02/11 14:10:17;;;;;;;;;;;5.10;99.90;;;;;;4931561;28;19917;-76
2022/02/11 14:12:43;;;;;;;;;;;5.10;99.90;;;;;;4951354;28;19928;-77
2022/02/11 14:15:08;;;;;;;;;;;5.10;99.90;;;;;;4951330;28;19972;-75
2022/02/11 14:17:34;;;;;;;;;;;5.10;99.90;;;;;;4947346;28;20017;-75
2022/02/11 14:20:00;;;;;;;;;;;5.10;99.90;;;;;;4952254;28;19985;-76
2022/02/11 14:22:29;;;;;;;;;;;5.10;99.90;;;;;;4954075;28;20249;-76
2022/02/11 14:24:54;;;;;;;;;;;5.00;99.90;;;;;;4973706;28;19960;-77
2022/02/11 14:27:20;;;;;;;;;;;5.00;99.90;;;;;;4978539;28;19949;-74
2022/02/11 14:29:45;;;;;;;;;;;4.90;99.90;;;;;;4969645;28;20772;-76
2022/02/11 14:32:11;;;;;;;;;;;4.90;99.90;;;;;;4945736;28;19918;-78
2022/02/11 14:34:37;;;;;;;;;;;4.90;99.90;;;;;;4951697;28;19925;-75
2022/02/11 14:37:03;;;;;;;;;;;4.80;99.90;;;;;;4944606;28;20807;-79
2022/02/11 14:39:29;;;;;;;;;;;4.80;99.90;;;;;;4964488;28;19937;-76
2022/02/11 14:41:57;;;;;;;;;;;4.80;99.90;;;;;;4952430;28;20268;-75
2022/02/11 14:44:30;;;;;;;;;;;4.80;99.90;;;;;;4931717;28;19961;-76
2022/02/11 14:46:58;;;;;;;;;;;4.80;99.90;;;;;;4950993;28;20315;-74
2022/02/11 14:49:24;;;;;;;;;;;4.80;99.90;;;;;;4946969;28;19941;-75
2022/02/11 14:51:53;;;;;;;;;;;4.80;99.90;;;;;;4969373;28;19914;-76
2022/02/11 14:54:19;;;;;;;;;;;4.80;99.90;;;;;;4961670;28;19922;-77
2022/02/11 14:56:45;;;;;;;;;;;4.80;99.90;;;;;;4972917;28;20089;-78
2022/02/11 14:59:11;;;;;;;;;;;4.80;99.90;;;;;;4953148;28;19910;-76
2022/02/11 15:01:39;;;;;;;;;;;4.80;99.90;;;;;;4943436;28;20001;-78
2022/02/11 15:04:04;;;;;;;;;;;4.80;99.90;;;;;;4954141;28;19914;-79
2022/02/11 15:06:30;;;;;;;;;;;4.80;99.90;;;;;;4955837;28;20428;-78
2022/02/11 15:08:56;;;;;;;;;;;4.80;99.90;;;;;;4960645;28;19937;-77
2022/02/11 15:11:24;;;;;;;;;;;4.80;99.90;;;;;;4956659;28;19933;-82
2022/02/11 15:13:49;;;;;;;;;;;4.80;99.90;;;;;;4971527;28;19969;-79
2022/02/11 15:16:15;;;;;;;;;;;4.80;99.90;;;;;;4973288;28;20442;-79
2022/02/11 15:18:40;;;;;;;;;;;4.80;99.90;;;;;;4941229;29;19910;-76
2022/02/11 15:21:06;;;;;;;;;;;4.80;99.90;;;;;;4955061;28;19976;-78
2022/02/11 15:23:32;;;;;;;;;;;4.80;99.90;;;;;;4962970;28;19957;-74
2022/02/11 15:26:02;;;;;;;;;;;4.90;99.90;;;;;;4976269;28;19913;-83
2022/02/11 15:28:31;;;;;;;;;;;4.90;99.90;;;;;;4942747;28;20295;-79
2022/02/11 15:30:57;;;;;;;;;;;4.90;99.90;;;;;;4962182;28;19925;-74
2022/02/11 15:33:22;;;;;;;;;;;4.90;99.90;;;;;;4962416;28;19913;-76
2022/02/11 15:35:48;;;;;;;;;;;4.90;99.90;;;;;;4958012;28;19910;-75
2022/02/11 15:38:14;;;;;;;;;;;4.90;99.90;;;;;;4963095;28;19948;-75
2022/02/11 15:40:40;;;;;;;;;;;4.90;99.90;;;;;;4957029;28;20443;-80
2022/02/11 15:43:05;;;;;;;;;;;4.80;99.90;;;;;;4953272;28;20150;-78
2022/02/11 15:45:31;;;;;;;;;;;4.70;99.90;;;;;;4956874;28;19965;-76
2022/02/11 15:47:56;;;;;;;;;;;4.70;99.90;;;;;;4949678;28;19914;-74
2022/02/11 15:50:22;;;;;;;;;;;4.80;99.90;;;;;;4957777;28;19921;-74
2022/02/11 15:52:49;;;;;;;;;;;4.70;99.90;;;;;;4978463;28;19914;-75
2022/02/11 15:55:15;;;;;;;;;;;4.70;99.90;;;;;;4955428;28;19910;-75
2022/02/11 15:57:42;;;;;;;;;;;4.70;99.90;;;;;;4951899;28;19914;-74
2022/02/11 16:00:08;;;;;;;;;;;4.70;99.90;;;;;;4970653;28;19920;-74
2022/02/11 16:02:33;;;;;;;;;;;4.60;99.90;;;;;;4976485;28;19909;-74
2022/02/11 16:04:59;;;;;;;;;;;4.50;99.90;;;;;;4979373;28;19910;-73
2022/02/11 16:07:27;;;;;;;;;;;4.50;99.90;;;;;;4963771;28;19961;-74
2022/02/11 16:09:56;;;;;;;;;;;4.50;99.90;;;;;;4977666;28;20005;-74
2022/02/11 16:12:21;;;;;;;;;;;4.40;99.90;;;;;;4964555;28;19919;-74
2022/02/11 16:14:47;;;;;;;;;;;4.30;99.90;;;;;;4959124;28;20098;-75
2022/02/11 16:17:13;;;;;;;;;;;4.30;99.90;;;;;;4970639;28;20000;-75
2022/02/11 16:19:38;;;;;;;;;;;4.30;99.90;;;;;;4961906;28;20052;-74
2022/02/11 16:22:04;;;;;;;;;;;4.30;99.90;;;;;;4978955;28;20352;-75
2022/02/11 16:24:30;;;;;;;;;;;4.30;99.90;;;;;;4981462;28;19910;-74
2022/02/11 16:26:56;;;;;;;;;;;4.30;99.90;;;;;;4972081;28;20320;-75
2022/02/11 16:29:22;;;;;;;;;;;4.20;99.90;;;;;;4931169;28;19958;-75
2022/02/11 16:31:49;;;;;;;;;;;4.20;99.90;;;;;;4958304;28;19909;-75
2022/02/11 16:34:18;;;;;;;;;;;4.20;99.90;;;;;;4976922;28;19936;-74
2022/02/11 16:36:44;;;;;;;;;;;4.10;99.90;;;;;;4978171;28;19910;-75
2022/02/11 16:39:11;;;;;;;;;;;4.10;99.90;;;;;;4959906;28;19976;-75
2022/02/11 16:41:37;;;;;;;;;;;4.10;99.90;;;;;;4983681;28;20299;-75
2022/02/11 16:44:04;;;;;;;;;;;4.10;99.90;;;;;;4970766;28;20013;-75
2022/02/11 16:46:29;;;;;;;;;;;4.00;99.90;;;;;;4962405;28;19925;-75
2022/02/11 16:48:55;;;;;;;;;;;4.00;99.90;;;;;;4975947;28;19910;-75
2022/02/11 16:51:20;;;;;;;;;;;4.40;99.90;;;;;;4957802;28;20039;-75
2022/02/11 16:53:46;;;;;;;;;;;4.80;99.90;;;;;;4975626;28;19922;-80
2022/02/11 16:56:12;;;;;;;;;;;4.80;99.90;;;;;;4966992;28;20363;-73
2022/02/11 16:58:37;;;;;;;;;;;4.60;99.90;;;;;;4974814;28;19914;-74
2022/02/11 17:01:03;;;;;;;;;;;4.50;99.90;;;;;;4978931;28;19905;-74
2022/02/11 17:03:29;;;;;;;;;;;4.30;99.90;;;;;;4976118;28;19910;-75
2022/02/11 17:05:55;;;;;;;;;;;4.20;99.90;;;;;;4959459;28;19913;-75
2022/02/11 17:08:21;;;;;;;;;;;4.10;99.90;;;;;;4960546;28;19914;-75
2022/02/11 17:10:48;;;;;;;;;;;4.00;99.90;;;;;;4968800;28;19924;-76
2022/02/11 17:13:15;;;;;;;;;;;3.90;99.90;;;;;;4957099;28;20448;-75
2022/02/11 17:15:41;;;;;;;;;;;3.90;99.90;;;;;;4976429;28;20001;-78
2022/02/11 17:18:08;;;;;;;;;;;3.80;99.90;;;;;;4977526;28;20000;-77
2022/02/11 17:20:34;;;;;;;;;;;3.80;99.90;;;;;;4959840;28;19910;-77
2022/02/11 17:23:00;;;;;;;;;;;3.80;99.90;;;;;;4961986;28;19914;-75
2022/02/11 17:25:26;;;;;;;;;;;3.80;99.90;;;;;;4960854;28;19917;-76
2022/02/11 17:27:51;;;;;;;;;;;3.80;99.90;;;;;;4964658;28;19914;-75
2022/02/11 17:30:17;;;;;;;;;;;3.70;99.90;;;;;;4959506;28;19980;-75
2022/02/11 17:32:45;;;;;;;;;;;3.70;99.90;;;;;;4980346;28;19913;-75
2022/02/11 17:35:10;;;;;;;;;;;3.70;99.90;;;;;;4945067;28;20372;-75
2022/02/11 17:37:37;;;;;;;;;;;3.70;99.90;;;;;;4959565;28;19910;-75
2022/02/11 17:40:04;;;;;;;;;;;3.70;99.90;;;;;;4959131;28;19962;-76
2022/02/11 17:42:30;;;;;;;;;;;3.60;99.90;;;;;;5026609;23;20345;-74
2022/02/11 17:45:02;;;;;;;;;;;3.60;99.90;;;;;;4974008;28;20462;-76
2022/02/11 17:47:27;;;;;;;;;;;3.60;99.90;;;;;;4962580;28;19928;-79
2022/02/11 17:49:53;;;;;;;;;;;3.50;99.90;;;;;;4929313;28;19918;-75
2022/02/11 17:52:19;;;;;;;;;;;3.50;99.90;;;;;;4977692;28;20052;-77
2022/02/11 17:54:44;;;;;;;;;;;3.50;99.90;;;;;;4969009;28;19914;-76
2022/02/11 17:57:11;;;;;;;;;;;3.50;99.90;;;;;;4969545;28;19926;-80
2022/02/11 17:59:37;;;;;;;;;;;3.50;99.90;;;;;;4966626;28;19926;-75
2022/02/11 18:02:03;;;;;;;;;;;3.50;99.90;;;;;;4982386;28;19917;-76
2022/02/11 18:04:30;;;;;;;;;;;3.50;99.90;;;;;;4960049;28;20394;-75
2022/02/11 18:06:57;;;;;;;;;;;3.50;99.90;;;;;;4964586;28;20445;-75
2022/02/11 18:09:23;;;;;;;;;;;3.50;99.90;;;;;;4960174;28;19914;-76
2022/02/11 18:11:49;;;;;;;;;;;3.40;99.90;;;;;;4970053;28;19911;-78
2022/02/11 18:14:14;;;;;;;;;;;3.40;99.90;;;;;;4933595;28;20289;-77
2022/02/11 18:16:42;;;;;;;;;;;3.40;99.90;;;;;;4965280;28;19916;-78
2022/02/11 18:19:10;;;;;;;;;;;3.30;99.90;;;;;;4969189;28;19937;-75